sensor_id;sensor_type;location;lat;lon;timestamp;temperature;humidity
60727;DHT22;46577;49.004;12.120;2022-07-24T00:02:24;21.40;97.90
60727;DHT22;46577;49.004;12.120;2022-07-24T00:04:50;21.40;98.00
60727;DHT22;46577;49.004;12.120;2022-07-24T00:07:16;21.40;98.00
60727;DHT22;46577;49.004;12.120;2022-07-24T00:09:42;21.40;97.90
60727;DHT22;46577;49.004;12.120;2022-07-24T00:12:07;21.50;97.70
60727;DHT22;46577;49.004;12.120;2022-07-24T00:14:33;21.50;97.70
60727;DHT22;46577;49.004;12.120;2022-07-24T00:16:59;21.50;97.60
60727;DHT22;46577;49.004;12.120;2022-07-24T00:19:25;21.60;97.70
60727;DHT22;46577;49.004;12.120;2022-07-24T00:21:50;21.60;97.80
60727;DHT22;46577;49.004;12.120;2022-07-24T00:24:16;21.60;98.00
60727;DHT22;46577;49.004;12.120;2022-07-24T00:26:41;21.70;98.40
60727;DHT22;46577;49.004;12.120;2022-07-24T00:29:07;21.70;98.20
60727;DHT22;46577;49.004;12.120;2022-07-24T00:31:33;21.70;98.10
60727;DHT22;46577;49.004;12.120;2022-07-24T00:33:59;21.70;97.80
60727;DHT22;46577;49.004;12.120;2022-07-24T00:36:25;21.70;97.50
60727;DHT22;46577;49.004;12.120;2022-07-24T00:38:51;21.70;97.50
60727;DHT22;46577;49.004;12.120;2022-07-24T00:41:16;21.70;97.50
60727;DHT22;46577;49.004;12.120;2022-07-24T00:44:05;21.70;97.50
60727;DHT22;46577;49.004;12.120;2022-07-24T00:46:32;21.70;97.40
60727;DHT22;46577;49.004;12.120;2022-07-24T00:48:58;21.70;97.80
60727;DHT22;46577;49.004;12.120;2022-07-24T00:51:24;21.60;97.30
60727;DHT22;46577;49.004;12.120;2022-07-24T00:53:50;21.50;97.20
60727;DHT22;46577;49.004;12.120;2022-07-24T00:56:16;21.60;97.30
60727;DHT22;46577;49.004;12.120;2022-07-24T00:58:41;21.60;97.20
60727;DHT22;46577;49.004;12.120;2022-07-24T01:01:07;21.60;97.20
60727;DHT22;46577;49.004;12.120;2022-07-24T01:03:33;21.60;97.10
60727;DHT22;46577;49.004;12.120;2022-07-24T01:05:58;21.60;97.00
60727;DHT22;46577;49.004;12.120;2022-07-24T01:08:24;21.60;96.90
60727;DHT22;46577;49.004;12.120;2022-07-24T01:10:51;21.60;97.00
60727;DHT22;46577;49.004;12.120;2022-07-24T01:13:17;21.60;96.90
60727;DHT22;46577;49.004;12.120;2022-07-24T01:15:42;21.50;96.70
60727;DHT22;46577;49.004;12.120;2022-07-24T01:18:08;21.50;96.60
60727;DHT22;46577;49.004;12.120;2022-07-24T01:20:37;21.50;96.60
60727;DHT22;46577;49.004;12.120;2022-07-24T01:23:03;21.60;96.60
60727;DHT22;46577;49.004;12.120;2022-07-24T01:25:29;21.60;96.50
60727;DHT22;46577;49.004;12.120;2022-07-24T01:27:55;21.60;96.60
60727;DHT22;46577;49.004;12.120;2022-07-24T01:30:21;21.60;96.60
60727;DHT22;46577;49.004;12.120;2022-07-24T01:32:46;21.60;96.60
60727;DHT22;46577;49.004;12.120;2022-07-24T01:35:12;21.60;96.60
60727;DHT22;46577;49.004;12.120;2022-07-24T01:37:38;21.50;96.50
60727;DHT22;46577;49.004;12.120;2022-07-24T01:40:04;21.60;96.70
60727;DHT22;46577;49.004;12.120;2022-07-24T01:42:29;21.50;96.70
60727;DHT22;46577;49.004;12.120;2022-07-24T01:44:55;21.50;96.60
60727;DHT22;46577;49.004;12.120;2022-07-24T01:47:21;21.50;96.70
60727;DHT22;46577;49.004;12.120;2022-07-24T01:49:46;21.50;96.70
60727;DHT22;46577;49.004;12.120;2022-07-24T01:52:12;21.40;96.90
60727;DHT22;46577;49.004;12.120;2022-07-24T01:54:38;21.40;97.10
60727;DHT22;46577;49.004;12.120;2022-07-24T01:57:03;21.40;97.10
60727;DHT22;46577;49.004;12.120;2022-07-24T01:59:30;21.40;97.20
60727;DHT22;46577;49.004;12.120;2022-07-24T02:01:55;21.40;97.20
60727;DHT22;46577;49.004;12.120;2022-07-24T02:04:21;21.40;97.10
60727;DHT22;46577;49.004;12.120;2022-07-24T02:06:47;21.50;97.10
60727;DHT22;46577;49.004;12.120;2022-07-24T02:09:12;21.50;97.00
60727;DHT22;46577;49.004;12.120;2022-07-24T02:11:38;21.50;97.00
60727;DHT22;46577;49.004;12.120;2022-07-24T02:14:04;21.40;97.00
60727;DHT22;46577;49.004;12.120;2022-07-24T02:16:29;21.40;97.00
60727;DHT22;46577;49.004;12.120;2022-07-24T02:18:55;21.40;97.20
60727;DHT22;46577;49.004;12.120;2022-07-24T02:21:21;21.30;97.20
60727;DHT22;46577;49.004;12.120;2022-07-24T02:23:46;21.30;97.30
60727;DHT22;46577;49.004;12.120;2022-07-24T02:26:12;21.20;97.40
60727;DHT22;46577;49.004;12.120;2022-07-24T02:28:38;21.20;97.50
60727;DHT22;46577;49.004;12.120;2022-07-24T02:31:03;21.10;97.50
60727;DHT22;46577;49.004;12.120;2022-07-24T02:33:29;21.00;97.60
60727;DHT22;46577;49.004;12.120;2022-07-24T02:35:54;21.00;97.70
60727;DHT22;46577;49.004;12.120;2022-07-24T02:38:20;20.90;97.80
60727;DHT22;46577;49.004;12.120;2022-07-24T02:40:46;20.90;98.10
60727;DHT22;46577;49.004;12.120;2022-07-24T02:43:11;20.90;98.30
60727;DHT22;46577;49.004;12.120;2022-07-24T02:45:37;20.80;98.30
60727;DHT22;46577;49.004;12.120;2022-07-24T02:48:03;20.70;98.60
60727;DHT22;46577;49.004;12.120;2022-07-24T02:50:31;20.70;98.70
60727;DHT22;46577;49.004;12.120;2022-07-24T02:52:57;20.60;98.70
60727;DHT22;46577;49.004;12.120;2022-07-24T02:55:23;20.60;98.90
60727;DHT22;46577;49.004;12.120;2022-07-24T02:57:49;20.60;99.00
60727;DHT22;46577;49.004;12.120;2022-07-24T03:00:16;20.60;99.20
60727;DHT22;46577;49.004;12.120;2022-07-24T03:02:42;20.50;99.30
60727;DHT22;46577;49.004;12.120;2022-07-24T03:05:09;20.50;99.50
60727;DHT22;46577;49.004;12.120;2022-07-24T03:07:34;20.40;99.60
60727;DHT22;46577;49.004;12.120;2022-07-24T03:10:03;20.40;99.60
60727;DHT22;46577;49.004;12.120;2022-07-24T03:12:29;20.30;99.70
60727;DHT22;46577;49.004;12.120;2022-07-24T03:14:54;20.30;99.80
60727;DHT22;46577;49.004;12.120;2022-07-24T03:17:20;20.30;99.80
60727;DHT22;46577;49.004;12.120;2022-07-24T03:19:46;20.30;99.80
60727;DHT22;46577;49.004;12.120;2022-07-24T03:22:11;20.30;99.90
60727;DHT22;46577;49.004;12.120;2022-07-24T03:24:37;20.30;99.90
60727;DHT22;46577;49.004;12.120;2022-07-24T03:27:03;20.30;99.90
60727;DHT22;46577;49.004;12.120;2022-07-24T03:29:28;20.30;99.90
60727;DHT22;46577;49.004;12.120;2022-07-24T03:31:54;20.30;99.90
60727;DHT22;46577;49.004;12.120;2022-07-24T03:34:20;20.30;99.90
60727;DHT22;46577;49.004;12.120;2022-07-24T03:36:45;20.30;99.90
60727;DHT22;46577;49.004;12.120;2022-07-24T03:39:11;20.20;99.90
60727;DHT22;46577;49.004;12.120;2022-07-24T03:41:37;20.20;99.90
60727;DHT22;46577;49.004;12.120;2022-07-24T03:44:03;20.20;99.90
60727;DHT22;46577;49.004;12.120;2022-07-24T03:46:28;20.30;99.90
60727;DHT22;46577;49.004;12.120;2022-07-24T03:48:54;20.30;99.90
60727;DHT22;46577;49.004;12.120;2022-07-24T03:51:20;20.40;99.90
60727;DHT22;46577;49.004;12.120;2022-07-24T03:53:47;20.30;99.90
60727;DHT22;46577;49.004;12.120;2022-07-24T03:56:12;20.30;99.90
60727;DHT22;46577;49.004;12.120;2022-07-24T03:58:38;20.40;99.90
60727;DHT22;46577;49.004;12.120;2022-07-24T04:01:04;20.40;99.90
60727;DHT22;46577;49.004;12.120;2022-07-24T04:03:29;20.40;99.90
60727;DHT22;46577;49.004;12.120;2022-07-24T04:05:55;20.40;99.90
60727;DHT22;46577;49.004;12.120;2022-07-24T04:08:20;20.40;99.90
60727;DHT22;46577;49.004;12.120;2022-07-24T04:10:46;20.40;99.90
60727;DHT22;46577;49.004;12.120;2022-07-24T04:13:12;20.40;99.90
60727;DHT22;46577;49.004;12.120;2022-07-24T04:15:38;20.40;99.90
60727;DHT22;46577;49.004;12.120;2022-07-24T04:18:03;20.40;99.90
60727;DHT22;46577;49.004;12.120;2022-07-24T04:20:29;20.50;99.90
60727;DHT22;46577;49.004;12.120;2022-07-24T04:22:54;20.60;99.90
60727;DHT22;46577;49.004;12.120;2022-07-24T04:25:20;20.60;99.90
60727;DHT22;46577;49.004;12.120;2022-07-24T04:27:46;20.80;99.90
60727;DHT22;46577;49.004;12.120;2022-07-24T04:30:13;21.00;99.70
60727;DHT22;46577;49.004;12.120;2022-07-24T04:32:39;21.10;99.40
60727;DHT22;46577;49.004;12.120;2022-07-24T04:35:06;21.30;99.20
60727;DHT22;46577;49.004;12.120;2022-07-24T04:37:32;21.40;99.10
60727;DHT22;46577;49.004;12.120;2022-07-24T04:39:58;21.60;98.80
60727;DHT22;46577;49.004;12.120;2022-07-24T04:42:23;21.80;98.70
60727;DHT22;46577;49.004;12.120;2022-07-24T04:44:49;21.90;98.50
60727;DHT22;46577;49.004;12.120;2022-07-24T04:47:14;22.10;98.20
60727;DHT22;46577;49.004;12.120;2022-07-24T04:49:40;22.20;97.80
60727;DHT22;46577;49.004;12.120;2022-07-24T04:52:06;22.40;97.40
60727;DHT22;46577;49.004;12.120;2022-07-24T04:54:31;22.50;97.00
60727;DHT22;46577;49.004;12.120;2022-07-24T04:56:57;22.60;96.70
60727;DHT22;46577;49.004;12.120;2022-07-24T04:59:23;22.80;96.50
60727;DHT22;46577;49.004;12.120;2022-07-24T05:01:49;23.10;95.90
60727;DHT22;46577;49.004;12.120;2022-07-24T05:04:15;23.20;95.60
60727;DHT22;46577;49.004;12.120;2022-07-24T05:06:41;23.30;95.50
60727;DHT22;46577;49.004;12.120;2022-07-24T05:09:06;23.40;95.20
60727;DHT22;46577;49.004;12.120;2022-07-24T05:11:32;23.70;94.70
60727;DHT22;46577;49.004;12.120;2022-07-24T05:13:58;23.90;94.30
60727;DHT22;46577;49.004;12.120;2022-07-24T05:16:23;24.00;94.20
60727;DHT22;46577;49.004;12.120;2022-07-24T05:18:49;24.30;94.10
60727;DHT22;46577;49.004;12.120;2022-07-24T05:21:14;24.60;93.10
60727;DHT22;46577;49.004;12.120;2022-07-24T05:23:41;25.10;92.30
60727;DHT22;46577;49.004;12.120;2022-07-24T05:26:08;25.60;91.40
60727;DHT22;46577;49.004;12.120;2022-07-24T05:28:34;26.10;90.20
60727;DHT22;46577;49.004;12.120;2022-07-24T05:31:00;26.30;89.00
60727;DHT22;46577;49.004;12.120;2022-07-24T05:33:25;26.70;87.70
60727;DHT22;46577;49.004;12.120;2022-07-24T05:35:51;27.00;85.70
60727;DHT22;46577;49.004;12.120;2022-07-24T05:38:17;27.20;85.00
60727;DHT22;46577;49.004;12.120;2022-07-24T05:40:42;27.60;82.70
60727;DHT22;46577;49.004;12.120;2022-07-24T05:43:08;27.80;81.30
60727;DHT22;46577;49.004;12.120;2022-07-24T05:45:33;28.20;80.60
60727;DHT22;46577;49.004;12.120;2022-07-24T05:47:59;28.70;79.40
60727;DHT22;46577;49.004;12.120;2022-07-24T05:50:25;29.20;76.60
60727;DHT22;46577;49.004;12.120;2022-07-24T05:52:50;29.80;73.60
60727;DHT22;46577;49.004;12.120;2022-07-24T05:55:16;30.30;71.20
60727;DHT22;46577;49.004;12.120;2022-07-24T05:57:41;30.70;69.40
60727;DHT22;46577;49.004;12.120;2022-07-24T06:00:07;30.80;68.00
60727;DHT22;46577;49.004;12.120;2022-07-24T06:02:34;30.70;67.30
60727;DHT22;46577;49.004;12.120;2022-07-24T06:05:00;30.70;67.20
60727;DHT22;46577;49.004;12.120;2022-07-24T06:07:25;30.60;67.10
60727;DHT22;46577;49.004;12.120;2022-07-24T06:09:51;30.60;66.20
60727;DHT22;46577;49.004;12.120;2022-07-24T06:12:17;30.60;67.00
60727;DHT22;46577;49.004;12.120;2022-07-24T06:14:43;30.60;65.20
60727;DHT22;46577;49.004;12.120;2022-07-24T06:17:09;30.80;64.70
60727;DHT22;46577;49.004;12.120;2022-07-24T06:19:35;30.90;65.30
60727;DHT22;46577;49.004;12.120;2022-07-24T06:22:00;30.80;64.00
60727;DHT22;46577;49.004;12.120;2022-07-24T06:24:26;31.20;63.50
60727;DHT22;46577;49.004;12.120;2022-07-24T06:26:52;31.80;61.90
60727;DHT22;46577;49.004;12.120;2022-07-24T06:29:17;32.40;60.50
60727;DHT22;46577;49.004;12.120;2022-07-24T06:31:43;33.30;58.30
60727;DHT22;46577;49.004;12.120;2022-07-24T06:34:09;34.10;55.40
60727;DHT22;46577;49.004;12.120;2022-07-24T06:36:34;34.70;53.00
60727;DHT22;46577;49.004;12.120;2022-07-24T06:39:00;35.10;51.80
60727;DHT22;46577;49.004;12.120;2022-07-24T06:41:25;36.00;49.50
60727;DHT22;46577;49.004;12.120;2022-07-24T06:43:51;36.50;47.10
60727;DHT22;46577;49.004;12.120;2022-07-24T06:46:17;36.80;46.20
60727;DHT22;46577;49.004;12.120;2022-07-24T06:48:42;36.70;44.70
60727;DHT22;46577;49.004;12.120;2022-07-24T06:51:08;36.80;45.30
60727;DHT22;46577;49.004;12.120;2022-07-24T06:53:33;37.20;43.80
60727;DHT22;46577;49.004;12.120;2022-07-24T06:56:01;37.70;42.60
60727;DHT22;46577;49.004;12.120;2022-07-24T06:58:26;37.20;42.90
60727;DHT22;46577;49.004;12.120;2022-07-24T07:00:52;37.20;42.30
60727;DHT22;46577;49.004;12.120;2022-07-24T07:03:18;37.00;41.30
60727;DHT22;46577;49.004;12.120;2022-07-24T07:05:44;37.50;41.30
60727;DHT22;46577;49.004;12.120;2022-07-24T07:08:09;38.40;40.50
60727;DHT22;46577;49.004;12.120;2022-07-24T07:10:35;39.00;39.20
60727;DHT22;46577;49.004;12.120;2022-07-24T07:13:01;39.20;38.10
60727;DHT22;46577;49.004;12.120;2022-07-24T07:15:26;40.20;37.00
60727;DHT22;46577;49.004;12.120;2022-07-24T07:17:52;40.60;35.10
60727;DHT22;46577;49.004;12.120;2022-07-24T07:20:18;39.30;36.00
60727;DHT22;46577;49.004;12.120;2022-07-24T07:22:44;39.50;36.20
60727;DHT22;46577;49.004;12.120;2022-07-24T07:25:10;39.60;36.30
60727;DHT22;46577;49.004;12.120;2022-07-24T07:27:36;40.30;35.60
60727;DHT22;46577;49.004;12.120;2022-07-24T07:30:06;41.20;34.20
60727;DHT22;46577;49.004;12.120;2022-07-24T07:32:32;42.10;33.30
60727;DHT22;46577;49.004;12.120;2022-07-24T07:34:58;41.70;32.80
60727;DHT22;46577;49.004;12.120;2022-07-24T07:37:23;40.60;33.90
60727;DHT22;46577;49.004;12.120;2022-07-24T07:39:49;39.20;35.90
60727;DHT22;46577;49.004;12.120;2022-07-24T07:42:15;39.00;37.00
60727;DHT22;46577;49.004;12.120;2022-07-24T07:44:40;40.40;34.50
60727;DHT22;46577;49.004;12.120;2022-07-24T07:47:06;41.40;33.20
60727;DHT22;46577;49.004;12.120;2022-07-24T07:49:32;41.50;32.40
60727;DHT22;46577;49.004;12.120;2022-07-24T07:51:57;41.50;32.30
60727;DHT22;46577;49.004;12.120;2022-07-24T07:54:23;41.80;31.80
60727;DHT22;46577;49.004;12.120;2022-07-24T07:56:48;41.10;32.50
60727;DHT22;46577;49.004;12.120;2022-07-24T07:59:14;42.00;31.30
60727;DHT22;46577;49.004;12.120;2022-07-24T08:01:40;41.70;31.40
60727;DHT22;46577;49.004;12.120;2022-07-24T08:04:05;42.70;30.80
60727;DHT22;46577;49.004;12.120;2022-07-24T08:06:31;43.60;29.70
60727;DHT22;46577;49.004;12.120;2022-07-24T08:08:57;43.60;30.70
60727;DHT22;46577;49.004;12.120;2022-07-24T08:11:23;42.80;29.80
60727;DHT22;46577;49.004;12.120;2022-07-24T08:13:48;42.80;29.90
60727;DHT22;46577;49.004;12.120;2022-07-24T08:16:14;43.50;29.10
60727;DHT22;46577;49.004;12.120;2022-07-24T08:18:39;43.70;29.60
60727;DHT22;46577;49.004;12.120;2022-07-24T08:21:05;44.20;29.70
60727;DHT22;46577;49.004;12.120;2022-07-24T08:23:31;44.30;29.20
60727;DHT22;46577;49.004;12.120;2022-07-24T08:25:57;44.10;29.30
60727;DHT22;46577;49.004;12.120;2022-07-24T08:28:23;44.30;29.30
60727;DHT22;46577;49.004;12.120;2022-07-24T08:30:51;45.00;28.30
60727;DHT22;46577;49.004;12.120;2022-07-24T08:33:17;45.40;27.70
60727;DHT22;46577;49.004;12.120;2022-07-24T08:35:43;45.10;27.50
60727;DHT22;46577;49.004;12.120;2022-07-24T08:38:09;44.90;28.00
60727;DHT22;46577;49.004;12.120;2022-07-24T08:40:36;45.10;27.30
60727;DHT22;46577;49.004;12.120;2022-07-24T08:43:07;45.20;27.60
60727;DHT22;46577;49.004;12.120;2022-07-24T08:45:35;46.30;26.50
60727;DHT22;46577;49.004;12.120;2022-07-24T08:48:09;47.20;25.60
60727;DHT22;46577;49.004;12.120;2022-07-24T08:50:37;48.10;24.80
60727;DHT22;46577;49.004;12.120;2022-07-24T08:53:04;48.00;25.00
60727;DHT22;46577;49.004;12.120;2022-07-24T08:55:30;47.50;24.80
60727;DHT22;46577;49.004;12.120;2022-07-24T08:57:56;46.40;26.40
60727;DHT22;46577;49.004;12.120;2022-07-24T09:00:23;45.90;26.60
60727;DHT22;46577;49.004;12.120;2022-07-24T09:02:49;45.50;27.40
60727;DHT22;46577;49.004;12.120;2022-07-24T09:05:15;47.40;25.60
60727;DHT22;46577;49.004;12.120;2022-07-24T09:07:41;48.80;23.90
60727;DHT22;46577;49.004;12.120;2022-07-24T09:10:11;49.00;23.50
60727;DHT22;46577;49.004;12.120;2022-07-24T09:12:39;48.20;23.70
60727;DHT22;46577;49.004;12.120;2022-07-24T09:17:48;49.60;22.30
60727;DHT22;46577;49.004;12.120;2022-07-24T09:20:14;48.80;22.90
60727;DHT22;46577;49.004;12.120;2022-07-24T09:22:41;47.30;24.10
60727;DHT22;46577;49.004;12.120;2022-07-24T09:25:24;47.60;24.10
60727;DHT22;46577;49.004;12.120;2022-07-24T09:27:58;48.20;23.80
60727;DHT22;46577;49.004;12.120;2022-07-24T09:30:32;44.90;24.70
60727;DHT22;46577;49.004;12.120;2022-07-24T09:33:03;43.70;25.60
60727;DHT22;46577;49.004;12.120;2022-07-24T09:38:01;45.50;25.40
60727;DHT22;46577;49.004;12.120;2022-07-24T09:40:30;45.00;25.20
60727;DHT22;46577;49.004;12.120;2022-07-24T09:43:21;45.80;25.60
60727;DHT22;46577;49.004;12.120;2022-07-24T09:48:30;43.80;26.10
60727;DHT22;46577;49.004;12.120;2022-07-24T09:50:59;43.50;25.30
60727;DHT22;46577;49.004;12.120;2022-07-24T09:53:27;43.50;24.90
60727;DHT22;46577;49.004;12.120;2022-07-24T09:56:07;44.60;24.80
60727;DHT22;46577;49.004;12.120;2022-07-24T09:58:35;44.50;24.80
60727;DHT22;46577;49.004;12.120;2022-07-24T10:01:02;45.10;24.20
60727;DHT22;46577;49.004;12.120;2022-07-24T10:03:31;44.50;25.40
60727;DHT22;46577;49.004;12.120;2022-07-24T10:06:05;45.90;24.90
60727;DHT22;46577;49.004;12.120;2022-07-24T10:08:33;48.10;23.30
60727;DHT22;46577;49.004;12.120;2022-07-24T10:10:59;49.60;22.60
60727;DHT22;46577;49.004;12.120;2022-07-24T10:13:25;49.50;20.80
60727;DHT22;46577;49.004;12.120;2022-07-24T10:18:51;47.10;21.80
60727;DHT22;46577;49.004;12.120;2022-07-24T10:21:19;47.80;21.40
60727;DHT22;46577;49.004;12.120;2022-07-24T10:26:36;50.20;19.40
60727;DHT22;46577;49.004;12.120;2022-07-24T10:29:07;51.10;19.70
60727;DHT22;46577;49.004;12.120;2022-07-24T10:31:35;51.40;19.70
60727;DHT22;46577;49.004;12.120;2022-07-24T10:34:04;49.40;20.00
60727;DHT22;46577;49.004;12.120;2022-07-24T10:36:35;50.00;18.90
60727;DHT22;46577;49.004;12.120;2022-07-24T10:39:11;50.40;19.00
60727;DHT22;46577;49.004;12.120;2022-07-24T10:41:38;49.80;19.00
60727;DHT22;46577;49.004;12.120;2022-07-24T10:44:17;49.20;19.20
60727;DHT22;46577;49.004;12.120;2022-07-24T10:52:25;45.90;21.30
60727;DHT22;46577;49.004;12.120;2022-07-24T11:00:36;46.30;22.60
60727;DHT22;46577;49.004;12.120;2022-07-24T11:03:07;46.20;22.20
60727;DHT22;46577;49.004;12.120;2022-07-24T11:05:35;46.20;21.90
60727;DHT22;46577;49.004;12.120;2022-07-24T11:21:47;42.70;24.10
60727;DHT22;46577;49.004;12.120;2022-07-24T11:26:49;40.80;25.10
60727;DHT22;46577;49.004;12.120;2022-07-24T11:29:27;40.80;26.10
60727;DHT22;46577;49.004;12.120;2022-07-24T11:32:02;40.70;25.50
60727;DHT22;46577;49.004;12.120;2022-07-24T11:34:29;40.90;25.10
60727;DHT22;46577;49.004;12.120;2022-07-24T11:36:56;40.90;26.70
60727;DHT22;46577;49.004;12.120;2022-07-24T11:39:31;41.20;25.90
60727;DHT22;46577;49.004;12.120;2022-07-24T11:42:03;40.60;26.60
60727;DHT22;46577;49.004;12.120;2022-07-24T11:44:31;40.00;26.70
60727;DHT22;46577;49.004;12.120;2022-07-24T11:47:06;39.80;27.10
60727;DHT22;46577;49.004;12.120;2022-07-24T11:49:45;39.20;27.30
60727;DHT22;46577;49.004;12.120;2022-07-24T11:52:35;38.50;29.90
60727;DHT22;46577;49.004;12.120;2022-07-24T11:55:12;38.20;29.40
60727;DHT22;46577;49.004;12.120;2022-07-24T11:57:40;37.50;28.70
60727;DHT22;46577;49.004;12.120;2022-07-24T12:00:08;36.10;29.90
60727;DHT22;46577;49.004;12.120;2022-07-24T12:02:43;35.30;30.90
60727;DHT22;46577;49.004;12.120;2022-07-24T12:05:09;34.80;31.30
60727;DHT22;46577;49.004;12.120;2022-07-24T12:07:35;34.20;36.10
60727;DHT22;46577;49.004;12.120;2022-07-24T12:10:02;34.60;36.30
60727;DHT22;46577;49.004;12.120;2022-07-24T12:12:29;35.10;33.90
60727;DHT22;46577;49.004;12.120;2022-07-24T12:17:32;35.90;32.90
60727;DHT22;46577;49.004;12.120;2022-07-24T12:19:59;36.20;34.00
60727;DHT22;46577;49.004;12.120;2022-07-24T12:22:27;36.40;32.90
60727;DHT22;46577;49.004;12.120;2022-07-24T12:24:54;36.60;31.50
60727;DHT22;46577;49.004;12.120;2022-07-24T12:27:34;36.80;34.40
60727;DHT22;46577;49.004;12.120;2022-07-24T12:30:00;36.80;32.90
60727;DHT22;46577;49.004;12.120;2022-07-24T12:32:26;36.60;30.80
60727;DHT22;46577;49.004;12.120;2022-07-24T12:34:52;36.70;31.50
60727;DHT22;46577;49.004;12.120;2022-07-24T12:37:19;36.30;31.00
60727;DHT22;46577;49.004;12.120;2022-07-24T12:39:53;35.80;31.20
60727;DHT22;46577;49.004;12.120;2022-07-24T12:42:39;35.60;30.80
60727;DHT22;46577;49.004;12.120;2022-07-24T12:45:08;35.80;30.20
60727;DHT22;46577;49.004;12.120;2022-07-24T12:48:22;35.80;30.50
60727;DHT22;46577;49.004;12.120;2022-07-24T12:50:21;35.90;30.20
60727;DHT22;46577;49.004;12.120;2022-07-24T12:52:50;35.80;30.80
60727;DHT22;46577;49.004;12.120;2022-07-24T12:55:20;35.60;33.20
60727;DHT22;46577;49.004;12.120;2022-07-24T12:57:46;35.30;34.20
60727;DHT22;46577;49.004;12.120;2022-07-24T13:00:12;35.10;33.50
60727;DHT22;46577;49.004;12.120;2022-07-24T13:02:39;35.20;31.70
60727;DHT22;46577;49.004;12.120;2022-07-24T13:05:07;35.00;32.10
60727;DHT22;46577;49.004;12.120;2022-07-24T13:07:32;34.80;33.80
60727;DHT22;46577;49.004;12.120;2022-07-24T13:09:58;34.50;35.40
60727;DHT22;46577;49.004;12.120;2022-07-24T13:12:24;34.30;33.20
60727;DHT22;46577;49.004;12.120;2022-07-24T13:14:50;34.00;33.30
60727;DHT22;46577;49.004;12.120;2022-07-24T13:17:17;33.80;34.90
60727;DHT22;46577;49.004;12.120;2022-07-24T13:19:46;33.50;34.50
60727;DHT22;46577;49.004;12.120;2022-07-24T13:22:13;33.60;34.40
60727;DHT22;46577;49.004;12.120;2022-07-24T13:24:38;33.60;33.90
60727;DHT22;46577;49.004;12.120;2022-07-24T13:27:08;33.70;36.80
60727;DHT22;46577;49.004;12.120;2022-07-24T13:29:35;33.90;34.00
60727;DHT22;46577;49.004;12.120;2022-07-24T13:32:01;34.00;33.70
60727;DHT22;46577;49.004;12.120;2022-07-24T13:34:27;34.10;34.10
60727;DHT22;46577;49.004;12.120;2022-07-24T13:36:56;34.20;33.50
60727;DHT22;46577;49.004;12.120;2022-07-24T13:39:23;34.00;34.80
60727;DHT22;46577;49.004;12.120;2022-07-24T13:41:48;34.10;34.90
60727;DHT22;46577;49.004;12.120;2022-07-24T13:44:14;34.20;36.10
60727;DHT22;46577;49.004;12.120;2022-07-24T13:46:41;34.40;35.40
60727;DHT22;46577;49.004;12.120;2022-07-24T13:49:07;34.70;35.90
60727;DHT22;46577;49.004;12.120;2022-07-24T13:51:37;34.90;35.00
60727;DHT22;46577;49.004;12.120;2022-07-24T13:54:04;34.90;32.50
60727;DHT22;46577;49.004;12.120;2022-07-24T13:56:29;34.80;32.30
60727;DHT22;46577;49.004;12.120;2022-07-24T13:58:58;34.10;32.70
60727;DHT22;46577;49.004;12.120;2022-07-24T14:01:24;33.90;33.20
60727;DHT22;46577;49.004;12.120;2022-07-24T14:03:50;34.00;34.40
60727;DHT22;46577;49.004;12.120;2022-07-24T14:06:16;33.70;33.70
60727;DHT22;46577;49.004;12.120;2022-07-24T14:08:41;32.90;34.50
60727;DHT22;46577;49.004;12.120;2022-07-24T14:11:08;32.70;35.80
60727;DHT22;46577;49.004;12.120;2022-07-24T14:13:34;32.80;36.10
60727;DHT22;46577;49.004;12.120;2022-07-24T14:16:00;32.90;35.70
60727;DHT22;46577;49.004;12.120;2022-07-24T14:18:26;33.00;35.40
60727;DHT22;46577;49.004;12.120;2022-07-24T14:20:51;33.10;38.60
60727;DHT22;46577;49.004;12.120;2022-07-24T14:23:17;33.30;36.80
60727;DHT22;46577;49.004;12.120;2022-07-24T14:25:44;33.40;34.40
60727;DHT22;46577;49.004;12.120;2022-07-24T14:28:13;32.90;35.00
60727;DHT22;46577;49.004;12.120;2022-07-24T14:30:39;32.80;35.30
60727;DHT22;46577;49.004;12.120;2022-07-24T14:33:05;32.80;35.60
60727;DHT22;46577;49.004;12.120;2022-07-24T14:35:30;32.80;36.00
60727;DHT22;46577;49.004;12.120;2022-07-24T14:37:57;32.80;35.90
60727;DHT22;46577;49.004;12.120;2022-07-24T14:40:23;32.80;37.70
60727;DHT22;46577;49.004;12.120;2022-07-24T14:42:48;32.80;37.70
60727;DHT22;46577;49.004;12.120;2022-07-24T14:45:14;32.70;41.80
60727;DHT22;46577;49.004;12.120;2022-07-24T14:47:40;32.60;42.70
60727;DHT22;46577;49.004;12.120;2022-07-24T14:50:09;32.60;39.40
60727;DHT22;46577;49.004;12.120;2022-07-24T14:52:38;32.50;37.40
60727;DHT22;46577;49.004;12.120;2022-07-24T14:55:05;32.30;36.10
60727;DHT22;46577;49.004;12.120;2022-07-24T14:57:31;32.20;36.20
60727;DHT22;46577;49.004;12.120;2022-07-24T14:59:57;32.10;36.70
60727;DHT22;46577;49.004;12.120;2022-07-24T15:02:23;32.10;36.50
60727;DHT22;46577;49.004;12.120;2022-07-24T15:04:49;32.20;37.50
60727;DHT22;46577;49.004;12.120;2022-07-24T15:07:14;32.10;36.40
60727;DHT22;46577;49.004;12.120;2022-07-24T15:09:40;32.00;36.60
60727;DHT22;46577;49.004;12.120;2022-07-24T15:12:06;31.80;36.90
60727;DHT22;46577;49.004;12.120;2022-07-24T15:14:32;31.80;38.80
60727;DHT22;46577;49.004;12.120;2022-07-24T15:16:57;31.70;37.00
60727;DHT22;46577;49.004;12.120;2022-07-24T15:19:23;31.60;36.80
60727;DHT22;46577;49.004;12.120;2022-07-24T15:21:49;31.60;36.80
60727;DHT22;46577;49.004;12.120;2022-07-24T15:24:14;31.50;36.70
60727;DHT22;46577;49.004;12.120;2022-07-24T15:26:40;31.60;37.40
60727;DHT22;46577;49.004;12.120;2022-07-24T15:29:06;31.60;37.30
60727;DHT22;46577;49.004;12.120;2022-07-24T15:31:32;31.40;37.70
60727;DHT22;46577;49.004;12.120;2022-07-24T15:33:58;31.60;39.90
60727;DHT22;46577;49.004;12.120;2022-07-24T15:36:24;31.70;37.40
60727;DHT22;46577;49.004;12.120;2022-07-24T15:38:49;31.70;36.90
60727;DHT22;46577;49.004;12.120;2022-07-24T15:41:15;31.70;36.50
60727;DHT22;46577;49.004;12.120;2022-07-24T15:43:41;31.70;36.40
60727;DHT22;46577;49.004;12.120;2022-07-24T15:46:07;31.60;37.30
60727;DHT22;46577;49.004;12.120;2022-07-24T15:48:32;31.70;37.00
60727;DHT22;46577;49.004;12.120;2022-07-24T15:50:58;31.60;36.90
60727;DHT22;46577;49.004;12.120;2022-07-24T15:53:24;31.50;37.30
60727;DHT22;46577;49.004;12.120;2022-07-24T15:55:49;31.20;38.00
60727;DHT22;46577;49.004;12.120;2022-07-24T15:58:15;31.00;39.00